sensor_id;sensor_type;location;lat;lon;timestamp;temperature;humidity
45008;DHT22;30743;52.008;5.644;2024-02-26T00:02:18;8.80;99.90
45008;DHT22;30743;52.008;5.644;2024-02-26T00:04:44;8.80;99.90
45008;DHT22;30743;52.008;5.644;2024-02-26T00:07:10;8.90;99.90
45008;DHT22;30743;52.008;5.644;2024-02-26T00:09:35;8.90;99.90
45008;DHT22;30743;52.008;5.644;2024-02-26T00:12:03;8.90;99.90
45008;DHT22;30743;52.008;5.644;2024-02-26T00:14:29;8.90;99.90
45008;DHT22;30743;52.008;5.644;2024-02-26T00:16:55;8.80;99.90
45008;DHT22;30743;52.008;5.644;2024-02-26T00:19:21;8.70;99.90
45008;DHT22;30743;52.008;5.644;2024-02-26T00:21:46;8.60;99.90
45008;DHT22;30743;52.008;5.644;2024-02-26T00:24:12;8.40;99.90
45008;DHT22;30743;52.008;5.644;2024-02-26T00:26:38;8.40;99.90
45008;DHT22;30743;52.008;5.644;2024-02-26T00:29:03;8.40;99.90
45008;DHT22;30743;52.008;5.644;2024-02-26T00:31:29;8.40;99.90
45008;DHT22;30743;52.008;5.644;2024-02-26T00:33:55;8.30;99.90
45008;DHT22;30743;52.008;5.644;2024-02-26T00:36:20;8.30;99.90
45008;DHT22;30743;52.008;5.644;2024-02-26T00:38:46;8.40;99.90
45008;DHT22;30743;52.008;5.644;2024-02-26T00:41:22;8.40;99.90
45008;DHT22;30743;52.008;5.644;2024-02-26T00:43:48;8.50;99.90
45008;DHT22;30743;52.008;5.644;2024-02-26T00:46:14;8.50;99.90
45008;DHT22;30743;52.008;5.644;2024-02-26T00:48:39;8.50;99.90
45008;DHT22;30743;52.008;5.644;2024-02-26T00:51:05;8.40;99.90
45008;DHT22;30743;52.008;5.644;2024-02-26T00:53:31;8.30;99.90
45008;DHT22;30743;52.008;5.644;2024-02-26T00:55:57;8.30;99.90
45008;DHT22;30743;52.008;5.644;2024-02-26T00:58:24;8.20;99.90
45008;DHT22;30743;52.008;5.644;2024-02-26T01:00:50;8.20;99.90
45008;DHT22;30743;52.008;5.644;2024-02-26T01:03:16;8.10;99.90
45008;DHT22;30743;52.008;5.644;2024-02-26T01:05:42;8.10;99.90
45008;DHT22;30743;52.008;5.644;2024-02-26T01:08:07;8.20;99.90
45008;DHT22;30743;52.008;5.644;2024-02-26T01:10:33;8.10;99.90
45008;DHT22;30743;52.008;5.644;2024-02-26T01:12:59;8.10;99.90
45008;DHT22;30743;52.008;5.644;2024-02-26T01:15:25;8.00;99.90
45008;DHT22;30743;52.008;5.644;2024-02-26T01:17:51;8.00;99.90
45008;DHT22;30743;52.008;5.644;2024-02-26T01:20:17;7.90;99.90
45008;DHT22;30743;52.008;5.644;2024-02-26T01:22:43;7.90;99.90
45008;DHT22;30743;52.008;5.644;2024-02-26T01:25:09;7.90;99.90
45008;DHT22;30743;52.008;5.644;2024-02-26T01:27:35;8.00;99.90
45008;DHT22;30743;52.008;5.644;2024-02-26T01:30:03;8.00;99.90
45008;DHT22;30743;52.008;5.644;2024-02-26T01:32:29;7.90;99.90
45008;DHT22;30743;52.008;5.644;2024-02-26T01:34:55;7.90;99.90
45008;DHT22;30743;52.008;5.644;2024-02-26T01:37:20;7.80;99.90
45008;DHT22;30743;52.008;5.644;2024-02-26T01:39:46;7.90;99.90
45008;DHT22;30743;52.008;5.644;2024-02-26T01:42:11;7.90;99.90
45008;DHT22;30743;52.008;5.644;2024-02-26T01:44:37;7.90;99.90
45008;DHT22;30743;52.008;5.644;2024-02-26T01:47:05;8.00;99.90
45008;DHT22;30743;52.008;5.644;2024-02-26T01:49:31;8.10;99.90
45008;DHT22;30743;52.008;5.644;2024-02-26T01:51:57;8.20;99.90
45008;DHT22;30743;52.008;5.644;2024-02-26T01:54:24;8.10;99.90
45008;DHT22;30743;52.008;5.644;2024-02-26T01:56:50;8.10;99.90
45008;DHT22;30743;52.008;5.644;2024-02-26T01:59:16;8.20;99.90
45008;DHT22;30743;52.008;5.644;2024-02-26T02:01:44;8.10;99.90
45008;DHT22;30743;52.008;5.644;2024-02-26T02:04:12;8.20;99.90
45008;DHT22;30743;52.008;5.644;2024-02-26T02:06:40;8.20;99.90
45008;DHT22;30743;52.008;5.644;2024-02-26T02:09:08;8.20;99.90
45008;DHT22;30743;52.008;5.644;2024-02-26T02:11:33;8.30;99.90
45008;DHT22;30743;52.008;5.644;2024-02-26T02:13:59;8.50;99.90
45008;DHT22;30743;52.008;5.644;2024-02-26T02:16:25;8.40;99.90
45008;DHT22;30743;52.008;5.644;2024-02-26T02:18:50;8.50;99.90
45008;DHT22;30743;52.008;5.644;2024-02-26T02:21:16;8.60;99.90
45008;DHT22;30743;52.008;5.644;2024-02-26T02:23:42;8.80;99.90
45008;DHT22;30743;52.008;5.644;2024-02-26T02:26:13;9.20;99.90
45008;DHT22;30743;52.008;5.644;2024-02-26T02:28:39;9.30;99.90
45008;DHT22;30743;52.008;5.644;2024-02-26T02:31:05;9.30;99.90
45008;DHT22;30743;52.008;5.644;2024-02-26T02:33:31;9.30;99.90
45008;DHT22;30743;52.008;5.644;2024-02-26T02:35:57;9.30;99.90
45008;DHT22;30743;52.008;5.644;2024-02-26T02:38:23;9.20;99.90
45008;DHT22;30743;52.008;5.644;2024-02-26T02:40:49;9.00;99.90
45008;DHT22;30743;52.008;5.644;2024-02-26T02:43:15;8.80;99.90
45008;DHT22;30743;52.008;5.644;2024-02-26T02:45:40;8.70;99.90
45008;DHT22;30743;52.008;5.644;2024-02-26T02:48:06;8.50;99.90
45008;DHT22;30743;52.008;5.644;2024-02-26T02:50:31;8.40;99.90
45008;DHT22;30743;52.008;5.644;2024-02-26T02:52:57;8.40;99.90
45008;DHT22;30743;52.008;5.644;2024-02-26T02:55:22;8.40;99.90
45008;DHT22;30743;52.008;5.644;2024-02-26T02:57:48;8.40;99.90
45008;DHT22;30743;52.008;5.644;2024-02-26T03:00:14;8.30;99.90
45008;DHT22;30743;52.008;5.644;2024-02-26T03:02:39;8.10;99.90
45008;DHT22;30743;52.008;5.644;2024-02-26T03:05:05;8.10;99.90
45008;DHT22;30743;52.008;5.644;2024-02-26T03:07:31;8.20;99.90
45008;DHT22;30743;52.008;5.644;2024-02-26T03:09:57;8.30;99.90
45008;DHT22;30743;52.008;5.644;2024-02-26T03:12:22;8.20;99.90
45008;DHT22;30743;52.008;5.644;2024-02-26T03:14:48;8.30;99.90
45008;DHT22;30743;52.008;5.644;2024-02-26T03:17:13;8.30;99.90
45008;DHT22;30743;52.008;5.644;2024-02-26T03:19:39;8.30;99.90
45008;DHT22;30743;52.008;5.644;2024-02-26T03:22:04;8.30;99.90
45008;DHT22;30743;52.008;5.644;2024-02-26T03:24:30;8.30;99.90
45008;DHT22;30743;52.008;5.644;2024-02-26T03:26:56;8.30;99.90
45008;DHT22;30743;52.008;5.644;2024-02-26T03:29:21;8.30;99.90
45008;DHT22;30743;52.008;5.644;2024-02-26T03:31:47;8.20;99.90
45008;DHT22;30743;52.008;5.644;2024-02-26T03:34:12;8.10;99.90
45008;DHT22;30743;52.008;5.644;2024-02-26T03:36:40;8.00;99.90
45008;DHT22;30743;52.008;5.644;2024-02-26T03:39:05;8.10;99.90
45008;DHT22;30743;52.008;5.644;2024-02-26T03:41:33;8.10;99.90
45008;DHT22;30743;52.008;5.644;2024-02-26T03:43:59;8.00;99.90
45008;DHT22;30743;52.008;5.644;2024-02-26T03:46:24;8.00;99.90
45008;DHT22;30743;52.008;5.644;2024-02-26T03:48:50;8.10;99.90
45008;DHT22;30743;52.008;5.644;2024-02-26T03:51:16;8.20;99.90
45008;DHT22;30743;52.008;5.644;2024-02-26T03:53:41;8.20;99.90
45008;DHT22;30743;52.008;5.644;2024-02-26T03:56:07;8.30;99.90
45008;DHT22;30743;52.008;5.644;2024-02-26T03:58:33;8.20;99.90
45008;DHT22;30743;52.008;5.644;2024-02-26T04:01:01;8.10;99.90
45008;DHT22;30743;52.008;5.644;2024-02-26T04:03:27;8.00;99.90
45008;DHT22;30743;52.008;5.644;2024-02-26T04:05:52;8.00;99.90
45008;DHT22;30743;52.008;5.644;2024-02-26T04:08:18;8.20;99.90
45008;DHT22;30743;52.008;5.644;2024-02-26T04:10:44;8.30;99.90
45008;DHT22;30743;52.008;5.644;2024-02-26T04:13:09;8.10;99.90
45008;DHT22;30743;52.008;5.644;2024-02-26T04:15:35;8.20;99.90
45008;DHT22;30743;52.008;5.644;2024-02-26T04:18:00;8.20;99.90
45008;DHT22;30743;52.008;5.644;2024-02-26T04:20:26;8.20;99.90
45008;DHT22;30743;52.008;5.644;2024-02-26T04:22:51;8.30;99.90
45008;DHT22;30743;52.008;5.644;2024-02-26T04:25:18;8.30;99.90
45008;DHT22;30743;52.008;5.644;2024-02-26T04:27:43;8.30;99.90
45008;DHT22;30743;52.008;5.644;2024-02-26T04:30:09;8.20;99.90
45008;DHT22;30743;52.008;5.644;2024-02-26T04:32:35;8.10;99.90
45008;DHT22;30743;52.008;5.644;2024-02-26T04:35:02;8.40;99.90
45008;DHT22;30743;52.008;5.644;2024-02-26T04:37:27;8.10;99.90
45008;DHT22;30743;52.008;5.644;2024-02-26T04:39:58;8.30;99.90
45008;DHT22;30743;52.008;5.644;2024-02-26T04:42:23;8.30;99.90
45008;DHT22;30743;52.008;5.644;2024-02-26T04:44:49;8.30;99.90
45008;DHT22;30743;52.008;5.644;2024-02-26T04:47:14;8.20;99.90
45008;DHT22;30743;52.008;5.644;2024-02-26T04:49:41;8.30;99.90
45008;DHT22;30743;52.008;5.644;2024-02-26T04:52:06;8.20;99.90
45008;DHT22;30743;52.008;5.644;2024-02-26T04:54:32;8.20;99.90
45008;DHT22;30743;52.008;5.644;2024-02-26T04:56:57;8.20;99.90
45008;DHT22;30743;52.008;5.644;2024-02-26T04:59:23;8.20;99.90
45008;DHT22;30743;52.008;5.644;2024-02-26T05:01:48;8.10;99.90
45008;DHT22;30743;52.008;5.644;2024-02-26T05:04:14;8.10;99.90
45008;DHT22;30743;52.008;5.644;2024-02-26T05:06:40;8.00;99.90
45008;DHT22;30743;52.008;5.644;2024-02-26T05:09:05;8.00;99.90
45008;DHT22;30743;52.008;5.644;2024-02-26T05:11:31;8.00;99.90
45008;DHT22;30743;52.008;5.644;2024-02-26T05:13:57;8.10;99.90
45008;DHT22;30743;52.008;5.644;2024-02-26T05:16:22;8.10;99.90
45008;DHT22;30743;52.008;5.644;2024-02-26T05:18:50;8.10;99.90
45008;DHT22;30743;52.008;5.644;2024-02-26T05:21:15;7.90;99.90
45008;DHT22;30743;52.008;5.644;2024-02-26T05:23:41;8.00;99.90
45008;DHT22;30743;52.008;5.644;2024-02-26T05:26:09;7.90;99.90
45008;DHT22;30743;52.008;5.644;2024-02-26T05:28:35;8.10;99.90
45008;DHT22;30743;52.008;5.644;2024-02-26T05:31:01;8.10;99.90
45008;DHT22;30743;52.008;5.644;2024-02-26T05:33:26;8.10;99.90
45008;DHT22;30743;52.008;5.644;2024-02-26T05:35:52;8.20;99.90
45008;DHT22;30743;52.008;5.644;2024-02-26T05:38:18;8.20;99.90
45008;DHT22;30743;52.008;5.644;2024-02-26T05:40:43;8.30;99.90
45008;DHT22;30743;52.008;5.644;2024-02-26T05:43:09;8.20;99.90
45008;DHT22;30743;52.008;5.644;2024-02-26T05:45:35;8.00;99.90
45008;DHT22;30743;52.008;5.644;2024-02-26T05:48:00;8.00;99.90
45008;DHT22;30743;52.008;5.644;2024-02-26T05:50:26;8.00;99.90
45008;DHT22;30743;52.008;5.644;2024-02-26T05:52:52;8.00;99.90
45008;DHT22;30743;52.008;5.644;2024-02-26T05:55:17;8.00;99.90
45008;DHT22;30743;52.008;5.644;2024-02-26T05:57:43;8.00;99.90
45008;DHT22;30743;52.008;5.644;2024-02-26T06:00:09;7.90;99.90
45008;DHT22;30743;52.008;5.644;2024-02-26T06:02:35;7.90;99.90
45008;DHT22;30743;52.008;5.644;2024-02-26T06:05:00;7.90;99.90
45008;DHT22;30743;52.008;5.644;2024-02-26T06:07:26;7.80;99.90
45008;DHT22;30743;52.008;5.644;2024-02-26T06:09:51;7.80;99.90
45008;DHT22;30743;52.008;5.644;2024-02-26T06:12:17;7.70;99.90
45008;DHT22;30743;52.008;5.644;2024-02-26T06:14:43;7.80;99.90
45008;DHT22;30743;52.008;5.644;2024-02-26T06:17:08;7.90;99.90
45008;DHT22;30743;52.008;5.644;2024-02-26T06:19:34;7.90;99.90
45008;DHT22;30743;52.008;5.644;2024-02-26T06:21:59;7.90;99.90
45008;DHT22;30743;52.008;5.644;2024-02-26T06:24:25;7.90;99.90
45008;DHT22;30743;52.008;5.644;2024-02-26T06:26:51;7.90;99.90
45008;DHT22;30743;52.008;5.644;2024-02-26T06:29:16;8.00;99.90
45008;DHT22;30743;52.008;5.644;2024-02-26T06:31:42;8.00;99.90
45008;DHT22;30743;52.008;5.644;2024-02-26T06:34:07;8.00;99.90
45008;DHT22;30743;52.008;5.644;2024-02-26T06:36:33;8.10;99.90
45008;DHT22;30743;52.008;5.644;2024-02-26T06:39:00;8.10;99.90
45008;DHT22;30743;52.008;5.644;2024-02-26T06:41:25;8.10;99.90
45008;DHT22;30743;52.008;5.644;2024-02-26T06:43:56;8.10;99.90
45008;DHT22;30743;52.008;5.644;2024-02-26T06:46:22;8.10;99.90
45008;DHT22;30743;52.008;5.644;2024-02-26T06:48:48;8.00;99.90
45008;DHT22;30743;52.008;5.644;2024-02-26T06:51:15;8.00;99.90
45008;DHT22;30743;52.008;5.644;2024-02-26T06:53:40;8.00;99.90
45008;DHT22;30743;52.008;5.644;2024-02-26T06:56:06;8.00;99.90
45008;DHT22;30743;52.008;5.644;2024-02-26T06:58:31;8.10;99.90
45008;DHT22;30743;52.008;5.644;2024-02-26T07:00:57;8.10;99.90
45008;DHT22;30743;52.008;5.644;2024-02-26T07:03:22;8.10;99.90
45008;DHT22;30743;52.008;5.644;2024-02-26T07:05:49;8.10;99.90
45008;DHT22;30743;52.008;5.644;2024-02-26T07:08:15;8.00;99.90
45008;DHT22;30743;52.008;5.644;2024-02-26T07:10:41;8.00;99.90
45008;DHT22;30743;52.008;5.644;2024-02-26T07:13:07;7.90;99.90
45008;DHT22;30743;52.008;5.644;2024-02-26T07:15:32;7.80;99.90
45008;DHT22;30743;52.008;5.644;2024-02-26T07:17:58;7.80;99.90
45008;DHT22;30743;52.008;5.644;2024-02-26T07:20:31;7.80;99.90
45008;DHT22;30743;52.008;5.644;2024-02-26T07:22:57;7.80;99.90
45008;DHT22;30743;52.008;5.644;2024-02-26T07:25:23;7.90;99.90
45008;DHT22;30743;52.008;5.644;2024-02-26T07:27:50;8.00;99.90
45008;DHT22;30743;52.008;5.644;2024-02-26T07:30:15;8.10;99.90
45008;DHT22;30743;52.008;5.644;2024-02-26T07:32:42;8.00;99.90
45008;DHT22;30743;52.008;5.644;2024-02-26T07:35:08;7.90;99.90
45008;DHT22;30743;52.008;5.644;2024-02-26T07:37:33;7.90;99.90
45008;DHT22;30743;52.008;5.644;2024-02-26T07:40:00;7.90;99.90
45008;DHT22;30743;52.008;5.644;2024-02-26T07:42:25;7.80;99.90
45008;DHT22;30743;52.008;5.644;2024-02-26T07:44:51;7.80;99.90
45008;DHT22;30743;52.008;5.644;2024-02-26T07:47:18;7.90;99.90
45008;DHT22;30743;52.008;5.644;2024-02-26T07:49:43;7.90;99.90
45008;DHT22;30743;52.008;5.644;2024-02-26T07:52:10;7.90;99.90
45008;DHT22;30743;52.008;5.644;2024-02-26T07:54:36;8.00;99.90
45008;DHT22;30743;52.008;5.644;2024-02-26T07:57:01;7.90;99.90
45008;DHT22;30743;52.008;5.644;2024-02-26T07:59:30;7.90;99.90
45008;DHT22;30743;52.008;5.644;2024-02-26T08:01:56;7.90;99.90
45008;DHT22;30743;52.008;5.644;2024-02-26T08:04:22;8.00;99.90
45008;DHT22;30743;52.008;5.644;2024-02-26T08:06:47;8.00;99.90
45008;DHT22;30743;52.008;5.644;2024-02-26T08:09:13;7.90;99.90
45008;DHT22;30743;52.008;5.644;2024-02-26T08:11:38;7.90;99.90
45008;DHT22;30743;52.008;5.644;2024-02-26T08:14:04;7.80;99.90
45008;DHT22;30743;52.008;5.644;2024-02-26T08:16:30;7.70;99.90
45008;DHT22;30743;52.008;5.644;2024-02-26T08:18:55;8.10;99.90
45008;DHT22;30743;52.008;5.644;2024-02-26T08:21:21;8.00;99.90
45008;DHT22;30743;52.008;5.644;2024-02-26T08:23:47;8.00;99.90
45008;DHT22;30743;52.008;5.644;2024-02-26T08:26:12;8.00;99.90
45008;DHT22;30743;52.008;5.644;2024-02-26T08:28:38;8.00;99.90
45008;DHT22;30743;52.008;5.644;2024-02-26T08:31:03;7.90;99.90
45008;DHT22;30743;52.008;5.644;2024-02-26T08:33:30;8.00;99.90
45008;DHT22;30743;52.008;5.644;2024-02-26T08:35:56;7.90;99.90
45008;DHT22;30743;52.008;5.644;2024-02-26T08:38:22;8.10;99.90
45008;DHT22;30743;52.008;5.644;2024-02-26T08:40:48;8.10;99.90
45008;DHT22;30743;52.008;5.644;2024-02-26T08:43:13;8.00;99.90
45008;DHT22;30743;52.008;5.644;2024-02-26T08:45:39;8.00;99.90
45008;DHT22;30743;52.008;5.644;2024-02-26T08:48:05;8.10;99.90
45008;DHT22;30743;52.008;5.644;2024-02-26T08:50:30;8.10;99.90
45008;DHT22;30743;52.008;5.644;2024-02-26T08:52:56;8.10;99.90
45008;DHT22;30743;52.008;5.644;2024-02-26T08:55:22;8.10;99.90
45008;DHT22;30743;52.008;5.644;2024-02-26T08:57:47;8.00;99.90
45008;DHT22;30743;52.008;5.644;2024-02-26T09:00:13;7.90;99.90
45008;DHT22;30743;52.008;5.644;2024-02-26T09:02:41;7.90;99.90
45008;DHT22;30743;52.008;5.644;2024-02-26T09:05:09;7.90;99.90
45008;DHT22;30743;52.008;5.644;2024-02-26T09:07:35;8.00;99.90
45008;DHT22;30743;52.008;5.644;2024-02-26T09:10:02;7.90;99.90
45008;DHT22;30743;52.008;5.644;2024-02-26T09:12:27;7.90;99.90
45008;DHT22;30743;52.008;5.644;2024-02-26T09:14:53;7.90;99.90
45008;DHT22;30743;52.008;5.644;2024-02-26T09:17:21;8.10;99.90
45008;DHT22;30743;52.008;5.644;2024-02-26T09:19:46;8.20;99.90
45008;DHT22;30743;52.008;5.644;2024-02-26T09:22:12;8.10;99.90
45008;DHT22;30743;52.008;5.644;2024-02-26T09:24:37;8.10;99.90
45008;DHT22;30743;52.008;5.644;2024-02-26T09:27:03;8.10;99.90
45008;DHT22;30743;52.008;5.644;2024-02-26T09:29:28;8.00;99.90
45008;DHT22;30743;52.008;5.644;2024-02-26T09:31:54;8.10;99.90
45008;DHT22;30743;52.008;5.644;2024-02-26T09:34:20;8.10;99.90
45008;DHT22;30743;52.008;5.644;2024-02-26T09:36:45;8.00;99.90
45008;DHT22;30743;52.008;5.644;2024-02-26T09:39:11;8.00;99.90
45008;DHT22;30743;52.008;5.644;2024-02-26T09:41:37;7.80;99.90
45008;DHT22;30743;52.008;5.644;2024-02-26T09:44:04;7.90;99.90
45008;DHT22;30743;52.008;5.644;2024-02-26T09:46:30;7.90;99.90
45008;DHT22;30743;52.008;5.644;2024-02-26T09:48:57;7.90;99.90
45008;DHT22;30743;52.008;5.644;2024-02-26T09:51:23;7.80;99.90
45008;DHT22;30743;52.008;5.644;2024-02-26T09:53:52;7.90;99.90
45008;DHT22;30743;52.008;5.644;2024-02-26T09:56:18;8.00;99.90
45008;DHT22;30743;52.008;5.644;2024-02-26T09:58:44;7.90;99.90
45008;DHT22;30743;52.008;5.644;2024-02-26T10:01:16;7.90;99.90
45008;DHT22;30743;52.008;5.644;2024-02-26T10:03:42;8.00;99.90
45008;DHT22;30743;52.008;5.644;2024-02-26T10:06:10;8.10;99.90
45008;DHT22;30743;52.008;5.644;2024-02-26T10:08:36;8.00;99.90
45008;DHT22;30743;52.008;5.644;2024-02-26T10:11:08;7.90;99.90
45008;DHT22;30743;52.008;5.644;2024-02-26T10:13:37;7.80;99.90
45008;DHT22;30743;52.008;5.644;2024-02-26T10:16:03;7.90;99.90
45008;DHT22;30743;52.008;5.644;2024-02-26T10:18:49;7.90;99.90
45008;DHT22;30743;52.008;5.644;2024-02-26T10:21:20;7.90;99.90
45008;DHT22;30743;52.008;5.644;2024-02-26T10:23:46;7.80;99.90
45008;DHT22;30743;52.008;5.644;2024-02-26T10:26:13;8.10;99.90
45008;DHT22;30743;52.008;5.644;2024-02-26T10:28:40;7.70;99.90
45008;DHT22;30743;52.008;5.644;2024-02-26T10:31:06;7.70;99.90
45008;DHT22;30743;52.008;5.644;2024-02-26T10:33:36;7.60;99.90
45008;DHT22;30743;52.008;5.644;2024-02-26T10:36:03;7.60;99.90
45008;DHT22;30743;52.008;5.644;2024-02-26T10:38:29;7.70;99.90
45008;DHT22;30743;52.008;5.644;2024-02-26T10:40:55;7.80;99.90
45008;DHT22;30743;52.008;5.644;2024-02-26T10:43:21;7.80;99.90
45008;DHT22;30743;52.008;5.644;2024-02-26T10:45:46;7.80;99.90
45008;DHT22;30743;52.008;5.644;2024-02-26T10:48:14;7.80;99.90
45008;DHT22;30743;52.008;5.644;2024-02-26T10:50:40;7.80;99.90
45008;DHT22;30743;52.008;5.644;2024-02-26T10:53:13;7.90;99.90
45008;DHT22;30743;52.008;5.644;2024-02-26T10:55:42;7.80;99.90
45008;DHT22;30743;52.008;5.644;2024-02-26T10:58:09;7.80;99.90
45008;DHT22;30743;52.008;5.644;2024-02-26T11:00:36;7.80;99.90
45008;DHT22;30743;52.008;5.644;2024-02-26T11:03:04;7.80;99.90
45008;DHT22;30743;52.008;5.644;2024-02-26T11:05:31;7.80;99.90
45008;DHT22;30743;52.008;5.644;2024-02-26T11:08:00;8.00;99.90
45008;DHT22;30743;52.008;5.644;2024-02-26T11:10:27;8.00;99.90
45008;DHT22;30743;52.008;5.644;2024-02-26T11:12:56;8.10;99.90
45008;DHT22;30743;52.008;5.644;2024-02-26T11:15:25;8.10;99.90
45008;DHT22;30743;52.008;5.644;2024-02-26T11:17:52;8.10;99.90
45008;DHT22;30743;52.008;5.644;2024-02-26T11:20:19;8.10;99.90
45008;DHT22;30743;52.008;5.644;2024-02-26T11:22:45;8.10;99.90
45008;DHT22;30743;52.008;5.644;2024-02-26T11:25:11;8.10;99.90
45008;DHT22;30743;52.008;5.644;2024-02-26T11:27:46;8.20;99.90
45008;DHT22;30743;52.008;5.644;2024-02-26T11:30:13;8.00;99.90
45008;DHT22;30743;52.008;5.644;2024-02-26T11:32:44;7.90;99.90
45008;DHT22;30743;52.008;5.644;2024-02-26T11:35:10;7.90;99.90
45008;DHT22;30743;52.008;5.644;2024-02-26T11:37:39;8.00;99.90
45008;DHT22;30743;52.008;5.644;2024-02-26T11:40:11;7.90;99.90
45008;DHT22;30743;52.008;5.644;2024-02-26T11:42:43;7.90;99.90
45008;DHT22;30743;52.008;5.644;2024-02-26T11:48:12;8.00;99.90
45008;DHT22;30743;52.008;5.644;2024-02-26T11:50:52;8.10;99.90
45008;DHT22;30743;52.008;5.644;2024-02-26T11:53:29;8.30;99.90
45008;DHT22;30743;52.008;5.644;2024-02-26T11:56:20;8.30;99.90
45008;DHT22;30743;52.008;5.644;2024-02-26T11:58:56;8.20;99.90
45008;DHT22;30743;52.008;5.644;2024-02-26T12:01:43;8.20;99.90
45008;DHT22;30743;52.008;5.644;2024-02-26T12:04:14;8.20;99.90
45008;DHT22;30743;52.008;5.644;2024-02-26T12:06:53;8.20;99.90
45008;DHT22;30743;52.008;5.644;2024-02-26T12:09:40;8.20;99.90
45008;DHT22;30743;52.008;5.644;2024-02-26T12:12:10;8.20;99.90
45008;DHT22;30743;52.008;5.644;2024-02-26T12:14:40;8.10;99.90
45008;DHT22;30743;52.008;5.644;2024-02-26T12:17:07;8.20;99.90
45008;DHT22;30743;52.008;5.644;2024-02-26T12:19:35;8.10;99.90
45008;DHT22;30743;52.008;5.644;2024-02-26T12:22:01;8.10;99.90
45008;DHT22;30743;52.008;5.644;2024-02-26T12:24:27;8.00;99.90
45008;DHT22;30743;52.008;5.644;2024-02-26T12:26:52;8.10;99.90
45008;DHT22;30743;52.008;5.644;2024-02-26T12:29:18;8.10;99.90
45008;DHT22;30743;52.008;5.644;2024-02-26T12:31:43;8.10;99.90
45008;DHT22;30743;52.008;5.644;2024-02-26T12:34:09;8.20;99.90
45008;DHT22;30743;52.008;5.644;2024-02-26T12:36:35;8.10;99.90
45008;DHT22;30743;52.008;5.644;2024-02-26T12:39:02;8.20;99.90
45008;DHT22;30743;52.008;5.644;2024-02-26T12:41:28;8.20;99.90
45008;DHT22;30743;52.008;5.644;2024-02-26T12:43:55;8.20;99.90
45008;DHT22;30743;52.008;5.644;2024-02-26T12:46:22;8.20;99.90
45008;DHT22;30743;52.008;5.644;2024-02-26T12:48:48;8.20;99.90
45008;DHT22;30743;52.008;5.644;2024-02-26T12:51:14;8.10;99.90
45008;DHT22;30743;52.008;5.644;2024-02-26T12:53:41;8.20;99.90
45008;DHT22;30743;52.008;5.644;2024-02-26T12:56:10;8.40;99.90
45008;DHT22;30743;52.008;5.644;2024-02-26T12:58:38;8.40;99.90
45008;DHT22;30743;52.008;5.644;2024-02-26T13:01:05;8.40;99.90
45008;DHT22;30743;52.008;5.644;2024-02-26T13:03:32;8.40;99.90
45008;DHT22;30743;52.008;5.644;2024-02-26T13:06:00;8.40;99.90
45008;DHT22;30743;52.008;5.644;2024-02-26T13:08:26;8.50;99.90
45008;DHT22;30743;52.008;5.644;2024-02-26T13:10:52;8.40;99.90
45008;DHT22;30743;52.008;5.644;2024-02-26T13:13:18;8.40;99.90
45008;DHT22;30743;52.008;5.644;2024-02-26T13:15:45;8.40;99.90
45008;DHT22;30743;52.008;5.644;2024-02-26T13:18:12;8.40;99.90
45008;DHT22;30743;52.008;5.644;2024-02-26T13:20:38;8.30;99.90
45008;DHT22;30743;52.008;5.644;2024-02-26T13:23:06;8.40;99.90
45008;DHT22;30743;52.008;5.644;2024-02-26T13:25:35;8.50;99.90
45008;DHT22;30743;52.008;5.644;2024-02-26T13:28:15;8.50;99.90
45008;DHT22;30743;52.008;5.644;2024-02-26T13:30:51;8.60;99.90
45008;DHT22;30743;52.008;5.644;2024-02-26T13:33:19;8.60;99.90
45008;DHT22;30743;52.008;5.644;2024-02-26T13:35:44;8.70;99.90
45008;DHT22;30743;52.008;5.644;2024-02-26T13:38:10;8.80;99.90
45008;DHT22;30743;52.008;5.644;2024-02-26T13:40:37;8.70;99.90
45008;DHT22;30743;52.008;5.644;2024-02-26T13:43:03;8.70;99.90
45008;DHT22;30743;52.008;5.644;2024-02-26T13:45:28;8.70;99.90
45008;DHT22;30743;52.008;5.644;2024-02-26T13:47:54;8.70;99.90
45008;DHT22;30743;52.008;5.644;2024-02-26T13:50:26;8.70;99.90
45008;DHT22;30743;52.008;5.644;2024-02-26T13:52:51;8.80;99.90
45008;DHT22;30743;52.008;5.644;2024-02-26T13:55:19;8.80;99.90
45008;DHT22;30743;52.008;5.644;2024-02-26T13:57:46;7.80;99.90
45008;DHT22;30743;52.008;5.644;2024-02-26T14:00:12;8.70;99.90
45008;DHT22;30743;52.008;5.644;2024-02-26T14:02:38;8.60;99.90
45008;DHT22;30743;52.008;5.644;2024-02-26T14:05:04;8.60;99.90
45008;DHT22;30743;52.008;5.644;2024-02-26T14:07:30;8.60;99.90
45008;DHT22;30743;52.008;5.644;2024-02-26T14:09:57;8.60;99.90
45008;DHT22;30743;52.008;5.644;2024-02-26T14:12:23;8.60;99.90
45008;DHT22;30743;52.008;5.644;2024-02-26T14:14:49;8.70;99.90
45008;DHT22;30743;52.008;5.644;2024-02-26T14:17:14;8.70;99.90
45008;DHT22;30743;52.008;5.644;2024-02-26T14:19:41;8.80;99.90
45008;DHT22;30743;52.008;5.644;2024-02-26T14:22:11;8.80;99.90
45008;DHT22;30743;52.008;5.644;2024-02-26T14:24:37;8.80;99.90
45008;DHT22;30743;52.008;5.644;2024-02-26T14:27:02;8.80;99.90
45008;DHT22;30743;52.008;5.644;2024-02-26T14:29:29;8.90;99.90
45008;DHT22;30743;52.008;5.644;2024-02-26T14:31:55;8.80;99.90
45008;DHT22;30743;52.008;5.644;2024-02-26T14:34:22;8.70;99.90
45008;DHT22;30743;52.008;5.644;2024-02-26T14:36:47;8.80;99.90
45008;DHT22;30743;52.008;5.644;2024-02-26T14:39:13;9.00;99.90
45008;DHT22;30743;52.008;5.644;2024-02-26T14:41:39;8.90;99.90
45008;DHT22;30743;52.008;5.644;2024-02-26T14:44:05;8.90;99.90
45008;DHT22;30743;52.008;5.644;2024-02-26T14:46:30;8.90;99.90
45008;DHT22;30743;52.008;5.644;2024-02-26T14:48:56;9.00;99.90
45008;DHT22;30743;52.008;5.644;2024-02-26T14:51:23;9.10;99.90
45008;DHT22;30743;52.008;5.644;2024-02-26T14:53:48;9.10;99.90
45008;DHT22;30743;52.008;5.644;2024-02-26T14:56:14;9.10;99.90
45008;DHT22;30743;52.008;5.644;2024-02-26T14:58:40;9.00;99.90
45008;DHT22;30743;52.008;5.644;2024-02-26T15:01:06;9.00;99.90
45008;DHT22;30743;52.008;5.644;2024-02-26T15:03:32;9.10;99.90
45008;DHT22;30743;52.008;5.644;2024-02-26T15:05:58;9.00;99.90
45008;DHT22;30743;52.008;5.644;2024-02-26T15:08:24;9.00;99.90
45008;DHT22;30743;52.008;5.644;2024-02-26T15:10:49;9.00;99.90
45008;DHT22;30743;52.008;5.644;2024-02-26T15:13:15;9.20;99.90
45008;DHT22;30743;52.008;5.644;2024-02-26T15:15:41;9.20;99.90
45008;DHT22;30743;52.008;5.644;2024-02-26T15:18:07;9.40;99.90
45008;DHT22;30743;52.008;5.644;2024-02-26T15:20:33;9.40;99.90
45008;DHT22;30743;52.008;5.644;2024-02-26T15:22:59;9.30;99.90
45008;DHT22;30743;52.008;5.644;2024-02-26T15:25:25;9.30;99.90
45008;DHT22;30743;52.008;5.644;2024-02-26T15:27:50;9.30;99.90
45008;DHT22;30743;52.008;5.644;2024-02-26T15:30:16;9.40;99.90
45008;DHT22;30743;52.008;5.644;2024-02-26T15:32:42;9.30;99.90
45008;DHT22;30743;52.008;5.644;2024-02-26T15:35:09;9.20;99.90
45008;DHT22;30743;52.008;5.644;2024-02-26T15:37:35;9.10;99.90
45008;DHT22;30743;52.008;5.644;2024-02-26T15:40:01;8.20;99.90
45008;DHT22;30743;52.008;5.644;2024-02-26T15:42:26;9.30;99.90
45008;DHT22;30743;52.008;5.644;2024-02-26T15:44:52;9.40;99.90